sensor_id;sensor_type;location;lat;lon;timestamp;temperature;humidity
52459;DHT22;38372;52.902;6.024;2022-08-21T00:01:32;14.20;99.90
52459;DHT22;38372;52.902;6.024;2022-08-21T00:03:57;14.30;99.90
52459;DHT22;38372;52.902;6.024;2022-08-21T00:06:23;14.30;99.90
52459;DHT22;38372;52.902;6.024;2022-08-21T00:08:51;14.30;99.90
52459;DHT22;38372;52.902;6.024;2022-08-21T00:11:17;14.30;99.90
52459;DHT22;38372;52.902;6.024;2022-08-21T00:13:43;14.30;99.90
52459;DHT22;38372;52.902;6.024;2022-08-21T00:16:09;14.20;99.90
52459;DHT22;38372;52.902;6.024;2022-08-21T00:18:36;14.10;99.90
52459;DHT22;38372;52.902;6.024;2022-08-21T00:21:03;14.10;99.90
52459;DHT22;38372;52.902;6.024;2022-08-21T00:23:29;14.10;99.90
52459;DHT22;38372;52.902;6.024;2022-08-21T00:25:55;14.10;99.90
52459;DHT22;38372;52.902;6.024;2022-08-21T00:28:21;14.10;99.90
52459;DHT22;38372;52.902;6.024;2022-08-21T00:30:47;14.10;99.90
52459;DHT22;38372;52.902;6.024;2022-08-21T00:33:13;14.10;99.90
52459;DHT22;38372;52.902;6.024;2022-08-21T00:35:41;14.10;99.90
52459;DHT22;38372;52.902;6.024;2022-08-21T00:38:09;14.10;99.90
52459;DHT22;38372;52.902;6.024;2022-08-21T00:40:43;14.10;99.90
52459;DHT22;38372;52.902;6.024;2022-08-21T00:43:11;14.10;99.90
52459;DHT22;38372;52.902;6.024;2022-08-21T00:45:38;14.10;99.90
52459;DHT22;38372;52.902;6.024;2022-08-21T00:48:04;14.00;99.90
52459;DHT22;38372;52.902;6.024;2022-08-21T00:50:33;14.00;99.90
52459;DHT22;38372;52.902;6.024;2022-08-21T00:53:00;13.90;99.90
52459;DHT22;38372;52.902;6.024;2022-08-21T00:55:28;13.90;99.90
52459;DHT22;38372;52.902;6.024;2022-08-21T00:57:57;13.90;99.90
52459;DHT22;38372;52.902;6.024;2022-08-21T01:00:28;13.90;99.90
52459;DHT22;38372;52.902;6.024;2022-08-21T01:02:56;13.90;99.90
52459;DHT22;38372;52.902;6.024;2022-08-21T01:05:23;13.90;99.90
52459;DHT22;38372;52.902;6.024;2022-08-21T01:07:49;13.90;99.90
52459;DHT22;38372;52.902;6.024;2022-08-21T01:10:15;13.90;99.90
52459;DHT22;38372;52.902;6.024;2022-08-21T01:12:42;13.90;99.90
52459;DHT22;38372;52.902;6.024;2022-08-21T01:15:08;13.90;99.90
52459;DHT22;38372;52.902;6.024;2022-08-21T01:17:35;13.90;99.90
52459;DHT22;38372;52.902;6.024;2022-08-21T01:20:05;13.90;99.90
52459;DHT22;38372;52.902;6.024;2022-08-21T01:22:32;13.90;99.90
52459;DHT22;38372;52.902;6.024;2022-08-21T01:24:58;13.90;99.90
52459;DHT22;38372;52.902;6.024;2022-08-21T01:27:24;13.80;99.90
52459;DHT22;38372;52.902;6.024;2022-08-21T01:32:35;13.80;99.90
52459;DHT22;38372;52.902;6.024;2022-08-21T01:35:01;13.80;99.90
52459;DHT22;38372;52.902;6.024;2022-08-21T01:37:29;13.80;99.90
52459;DHT22;38372;52.902;6.024;2022-08-21T01:39:55;13.90;99.90
52459;DHT22;38372;52.902;6.024;2022-08-21T01:42:21;13.90;99.90
52459;DHT22;38372;52.902;6.024;2022-08-21T01:44:47;13.90;99.90
52459;DHT22;38372;52.902;6.024;2022-08-21T01:47:14;13.90;99.90
52459;DHT22;38372;52.902;6.024;2022-08-21T01:49:41;13.90;99.90
52459;DHT22;38372;52.902;6.024;2022-08-21T01:52:08;13.90;99.90
52459;DHT22;38372;52.902;6.024;2022-08-21T01:54:34;13.90;99.90
52459;DHT22;38372;52.902;6.024;2022-08-21T01:57:00;13.90;99.90
52459;DHT22;38372;52.902;6.024;2022-08-21T01:59:27;13.80;99.90
52459;DHT22;38372;52.902;6.024;2022-08-21T02:01:53;13.80;99.90
52459;DHT22;38372;52.902;6.024;2022-08-21T02:04:19;13.80;99.90
52459;DHT22;38372;52.902;6.024;2022-08-21T02:06:46;13.80;99.90
52459;DHT22;38372;52.902;6.024;2022-08-21T02:09:12;13.90;99.90
52459;DHT22;38372;52.902;6.024;2022-08-21T02:11:40;13.90;99.90
52459;DHT22;38372;52.902;6.024;2022-08-21T02:14:08;13.90;99.90
52459;DHT22;38372;52.902;6.024;2022-08-21T02:16:35;14.00;99.90
52459;DHT22;38372;52.902;6.024;2022-08-21T02:19:01;14.00;99.90
52459;DHT22;38372;52.902;6.024;2022-08-21T02:21:27;14.00;99.90
52459;DHT22;38372;52.902;6.024;2022-08-21T02:23:53;14.00;99.90
52459;DHT22;38372;52.902;6.024;2022-08-21T02:26:18;14.00;99.90
52459;DHT22;38372;52.902;6.024;2022-08-21T02:28:44;14.00;99.90
52459;DHT22;38372;52.902;6.024;2022-08-21T02:31:10;14.00;99.90
52459;DHT22;38372;52.902;6.024;2022-08-21T02:33:36;14.00;99.90
52459;DHT22;38372;52.902;6.024;2022-08-21T02:36:03;14.00;99.90
52459;DHT22;38372;52.902;6.024;2022-08-21T02:38:31;14.00;99.90
52459;DHT22;38372;52.902;6.024;2022-08-21T02:41:06;14.10;99.90
52459;DHT22;38372;52.902;6.024;2022-08-21T02:43:33;14.10;99.90
52459;DHT22;38372;52.902;6.024;2022-08-21T02:45:59;14.10;99.90
52459;DHT22;38372;52.902;6.024;2022-08-21T02:48:29;14.10;99.90
52459;DHT22;38372;52.902;6.024;2022-08-21T02:51:03;14.10;99.90
52459;DHT22;38372;52.902;6.024;2022-08-21T02:53:30;14.10;99.90
52459;DHT22;38372;52.902;6.024;2022-08-21T02:55:58;14.10;99.90
52459;DHT22;38372;52.902;6.024;2022-08-21T02:58:27;14.10;99.90
52459;DHT22;38372;52.902;6.024;2022-08-21T03:00:54;14.10;99.90
52459;DHT22;38372;52.902;6.024;2022-08-21T03:03:20;14.00;99.90
52459;DHT22;38372;52.902;6.024;2022-08-21T03:05:47;14.00;99.90
52459;DHT22;38372;52.902;6.024;2022-08-21T03:08:14;14.10;99.90
52459;DHT22;38372;52.902;6.024;2022-08-21T03:10:46;14.00;99.90
52459;DHT22;38372;52.902;6.024;2022-08-21T03:13:13;14.10;99.90
52459;DHT22;38372;52.902;6.024;2022-08-21T03:15:40;14.10;99.90
52459;DHT22;38372;52.902;6.024;2022-08-21T03:18:07;14.10;99.90
52459;DHT22;38372;52.902;6.024;2022-08-21T03:20:34;14.20;99.90
52459;DHT22;38372;52.902;6.024;2022-08-21T03:23:02;14.20;99.90
52459;DHT22;38372;52.902;6.024;2022-08-21T03:25:29;14.20;99.90
52459;DHT22;38372;52.902;6.024;2022-08-21T03:27:58;14.20;99.90
52459;DHT22;38372;52.902;6.024;2022-08-21T03:30:24;14.20;99.90
52459;DHT22;38372;52.902;6.024;2022-08-21T03:32:50;14.20;99.90
52459;DHT22;38372;52.902;6.024;2022-08-21T03:35:17;14.20;99.90
52459;DHT22;38372;52.902;6.024;2022-08-21T03:37:44;14.20;99.90
52459;DHT22;38372;52.902;6.024;2022-08-21T03:40:12;14.20;99.90
52459;DHT22;38372;52.902;6.024;2022-08-21T03:42:39;14.20;99.90
52459;DHT22;38372;52.902;6.024;2022-08-21T03:45:07;14.20;99.90
52459;DHT22;38372;52.902;6.024;2022-08-21T03:47:34;14.10;99.90
52459;DHT22;38372;52.902;6.024;2022-08-21T03:50:05;14.10;99.90
52459;DHT22;38372;52.902;6.024;2022-08-21T03:52:31;14.10;99.90
52459;DHT22;38372;52.902;6.024;2022-08-21T03:54:57;14.10;99.90
52459;DHT22;38372;52.902;6.024;2022-08-21T03:57:23;14.00;99.90
52459;DHT22;38372;52.902;6.024;2022-08-21T03:59:50;14.10;99.90
52459;DHT22;38372;52.902;6.024;2022-08-21T04:02:17;14.10;99.90
52459;DHT22;38372;52.902;6.024;2022-08-21T04:04:45;14.10;99.90
52459;DHT22;38372;52.902;6.024;2022-08-21T04:07:11;14.10;99.90
52459;DHT22;38372;52.902;6.024;2022-08-21T04:09:36;14.10;99.90
52459;DHT22;38372;52.902;6.024;2022-08-21T04:12:03;14.10;99.90
52459;DHT22;38372;52.902;6.024;2022-08-21T04:14:29;14.20;99.90
52459;DHT22;38372;52.902;6.024;2022-08-21T04:16:55;14.20;99.90
52459;DHT22;38372;52.902;6.024;2022-08-21T04:19:21;14.20;99.90
52459;DHT22;38372;52.902;6.024;2022-08-21T04:21:47;14.20;99.90
52459;DHT22;38372;52.902;6.024;2022-08-21T04:24:13;14.20;99.90
52459;DHT22;38372;52.902;6.024;2022-08-21T04:26:39;14.20;99.90
52459;DHT22;38372;52.902;6.024;2022-08-21T04:29:05;14.20;99.90
52459;DHT22;38372;52.902;6.024;2022-08-21T04:31:35;14.20;99.90
52459;DHT22;38372;52.902;6.024;2022-08-21T04:34:05;14.20;99.90
52459;DHT22;38372;52.902;6.024;2022-08-21T04:36:32;14.20;99.90
52459;DHT22;38372;52.902;6.024;2022-08-21T04:38:58;14.20;99.90
52459;DHT22;38372;52.902;6.024;2022-08-21T04:41:24;14.30;99.90
52459;DHT22;38372;52.902;6.024;2022-08-21T04:43:50;14.20;99.90
52459;DHT22;38372;52.902;6.024;2022-08-21T04:46:16;14.30;99.90
52459;DHT22;38372;52.902;6.024;2022-08-21T04:48:42;14.30;99.90
52459;DHT22;38372;52.902;6.024;2022-08-21T04:51:18;14.30;99.90
52459;DHT22;38372;52.902;6.024;2022-08-21T04:53:49;14.30;99.90
52459;DHT22;38372;52.902;6.024;2022-08-21T04:56:25;14.30;99.90
52459;DHT22;38372;52.902;6.024;2022-08-21T04:58:55;14.30;99.90
52459;DHT22;38372;52.902;6.024;2022-08-21T05:01:24;14.30;99.90
52459;DHT22;38372;52.902;6.024;2022-08-21T05:03:55;14.30;99.90
52459;DHT22;38372;52.902;6.024;2022-08-21T05:06:22;14.30;99.90
52459;DHT22;38372;52.902;6.024;2022-08-21T05:08:49;14.30;99.90
52459;DHT22;38372;52.902;6.024;2022-08-21T05:11:16;14.30;99.90
52459;DHT22;38372;52.902;6.024;2022-08-21T05:13:42;14.30;99.90
52459;DHT22;38372;52.902;6.024;2022-08-21T05:16:08;14.40;99.90
52459;DHT22;38372;52.902;6.024;2022-08-21T05:18:34;14.40;99.90
52459;DHT22;38372;52.902;6.024;2022-08-21T05:21:00;14.50;99.90
52459;DHT22;38372;52.902;6.024;2022-08-21T05:23:27;14.50;99.90
52459;DHT22;38372;52.902;6.024;2022-08-21T05:25:53;14.50;99.90
52459;DHT22;38372;52.902;6.024;2022-08-21T05:28:19;14.60;99.90
52459;DHT22;38372;52.902;6.024;2022-08-21T05:30:47;14.60;99.90
52459;DHT22;38372;52.902;6.024;2022-08-21T05:33:13;14.70;99.90
52459;DHT22;38372;52.902;6.024;2022-08-21T05:35:39;14.80;99.90
52459;DHT22;38372;52.902;6.024;2022-08-21T05:38:06;14.80;99.90
52459;DHT22;38372;52.902;6.024;2022-08-21T05:40:32;14.90;99.90
52459;DHT22;38372;52.902;6.024;2022-08-21T05:42:59;15.00;99.90
52459;DHT22;38372;52.902;6.024;2022-08-21T05:45:28;15.00;99.90
52459;DHT22;38372;52.902;6.024;2022-08-21T05:47:56;15.10;99.90
52459;DHT22;38372;52.902;6.024;2022-08-21T05:50:22;15.10;99.90
52459;DHT22;38372;52.902;6.024;2022-08-21T05:52:48;15.20;99.90
52459;DHT22;38372;52.902;6.024;2022-08-21T05:55:13;15.30;99.90
52459;DHT22;38372;52.902;6.024;2022-08-21T05:57:41;15.30;99.90
52459;DHT22;38372;52.902;6.024;2022-08-21T06:00:08;15.40;99.90
52459;DHT22;38372;52.902;6.024;2022-08-21T06:02:40;15.50;99.90
52459;DHT22;38372;52.902;6.024;2022-08-21T06:05:07;15.60;99.90
52459;DHT22;38372;52.902;6.024;2022-08-21T06:07:33;15.70;99.90
52459;DHT22;38372;52.902;6.024;2022-08-21T06:10:00;15.70;99.90
52459;DHT22;38372;52.902;6.024;2022-08-21T06:12:26;15.80;99.90
52459;DHT22;38372;52.902;6.024;2022-08-21T06:14:52;15.90;99.90
52459;DHT22;38372;52.902;6.024;2022-08-21T06:17:18;16.10;99.90
52459;DHT22;38372;52.902;6.024;2022-08-21T06:19:44;16.30;99.90
52459;DHT22;38372;52.902;6.024;2022-08-21T06:22:11;16.60;99.90
52459;DHT22;38372;52.902;6.024;2022-08-21T06:24:37;16.90;99.90
52459;DHT22;38372;52.902;6.024;2022-08-21T06:27:06;17.20;99.90
52459;DHT22;38372;52.902;6.024;2022-08-21T06:29:33;17.40;99.90
52459;DHT22;38372;52.902;6.024;2022-08-21T06:32:01;17.60;99.90
52459;DHT22;38372;52.902;6.024;2022-08-21T06:34:28;17.70;99.90
52459;DHT22;38372;52.902;6.024;2022-08-21T06:36:54;17.90;99.90
52459;DHT22;38372;52.902;6.024;2022-08-21T06:39:19;18.10;99.90
52459;DHT22;38372;52.902;6.024;2022-08-21T06:41:45;18.20;99.90
52459;DHT22;38372;52.902;6.024;2022-08-21T06:44:11;18.40;99.90
52459;DHT22;38372;52.902;6.024;2022-08-21T06:46:37;18.40;99.90
52459;DHT22;38372;52.902;6.024;2022-08-21T06:49:03;18.60;99.90
52459;DHT22;38372;52.902;6.024;2022-08-21T06:51:29;18.70;99.90
52459;DHT22;38372;52.902;6.024;2022-08-21T06:53:55;18.80;99.90
52459;DHT22;38372;52.902;6.024;2022-08-21T06:56:21;19.00;99.90
52459;DHT22;38372;52.902;6.024;2022-08-21T06:58:47;19.20;99.90
52459;DHT22;38372;52.902;6.024;2022-08-21T07:01:13;19.40;99.90
52459;DHT22;38372;52.902;6.024;2022-08-21T07:03:41;19.50;99.90
52459;DHT22;38372;52.902;6.024;2022-08-21T07:06:08;19.70;99.90
52459;DHT22;38372;52.902;6.024;2022-08-21T07:08:35;19.80;99.90
52459;DHT22;38372;52.902;6.024;2022-08-21T07:11:04;19.80;99.90
52459;DHT22;38372;52.902;6.024;2022-08-21T07:13:31;19.60;99.90
52459;DHT22;38372;52.902;6.024;2022-08-21T07:15:57;19.40;99.90
52459;DHT22;38372;52.902;6.024;2022-08-21T07:18:23;19.30;99.90
52459;DHT22;38372;52.902;6.024;2022-08-21T07:20:49;19.30;99.90
52459;DHT22;38372;52.902;6.024;2022-08-21T07:23:28;19.40;99.90
52459;DHT22;38372;52.902;6.024;2022-08-21T07:25:54;19.50;99.90
52459;DHT22;38372;52.902;6.024;2022-08-21T07:28:20;19.70;99.90
52459;DHT22;38372;52.902;6.024;2022-08-21T07:30:50;19.80;99.90
52459;DHT22;38372;52.902;6.024;2022-08-21T07:33:17;19.90;99.90
52459;DHT22;38372;52.902;6.024;2022-08-21T07:35:43;19.90;99.90
52459;DHT22;38372;52.902;6.024;2022-08-21T07:38:09;20.00;99.90
52459;DHT22;38372;52.902;6.024;2022-08-21T07:40:35;20.10;99.90
52459;DHT22;38372;52.902;6.024;2022-08-21T07:43:01;20.30;99.90
52459;DHT22;38372;52.902;6.024;2022-08-21T07:45:27;20.50;99.90
52459;DHT22;38372;52.902;6.024;2022-08-21T07:47:52;20.60;99.90
52459;DHT22;38372;52.902;6.024;2022-08-21T07:50:19;20.70;99.90
52459;DHT22;38372;52.902;6.024;2022-08-21T07:52:46;20.80;99.90
52459;DHT22;38372;52.902;6.024;2022-08-21T07:55:15;20.90;99.90
52459;DHT22;38372;52.902;6.024;2022-08-21T07:57:42;21.10;99.90
52459;DHT22;38372;52.902;6.024;2022-08-21T08:00:11;21.30;99.90
52459;DHT22;38372;52.902;6.024;2022-08-21T08:02:38;21.40;99.90
52459;DHT22;38372;52.902;6.024;2022-08-21T08:05:07;21.60;99.90
52459;DHT22;38372;52.902;6.024;2022-08-21T08:07:33;21.80;99.90
52459;DHT22;38372;52.902;6.024;2022-08-21T08:10:00;22.00;99.90
52459;DHT22;38372;52.902;6.024;2022-08-21T08:12:26;22.20;99.90
52459;DHT22;38372;52.902;6.024;2022-08-21T08:14:59;22.60;99.90
52459;DHT22;38372;52.902;6.024;2022-08-21T08:17:26;22.80;99.90
52459;DHT22;38372;52.902;6.024;2022-08-21T08:19:52;23.00;99.90
52459;DHT22;38372;52.902;6.024;2022-08-21T08:22:20;23.00;99.90
52459;DHT22;38372;52.902;6.024;2022-08-21T08:24:50;23.20;99.90
52459;DHT22;38372;52.902;6.024;2022-08-21T08:27:16;23.40;99.90
52459;DHT22;38372;52.902;6.024;2022-08-21T08:29:44;23.80;99.90
52459;DHT22;38372;52.902;6.024;2022-08-21T08:32:10;24.00;99.90
52459;DHT22;38372;52.902;6.024;2022-08-21T08:34:37;24.20;99.90
52459;DHT22;38372;52.902;6.024;2022-08-21T08:37:04;24.30;99.90
52459;DHT22;38372;52.902;6.024;2022-08-21T08:39:30;24.40;99.90
52459;DHT22;38372;52.902;6.024;2022-08-21T08:42:06;24.70;99.90
52459;DHT22;38372;52.902;6.024;2022-08-21T08:44:33;24.90;99.90
52459;DHT22;38372;52.902;6.024;2022-08-21T08:47:01;24.90;99.90
52459;DHT22;38372;52.902;6.024;2022-08-21T08:52:06;24.90;99.90
52459;DHT22;38372;52.902;6.024;2022-08-21T08:54:51;25.10;99.90
52459;DHT22;38372;52.902;6.024;2022-08-21T08:57:22;25.20;99.90
52459;DHT22;38372;52.902;6.024;2022-08-21T08:59:51;25.40;99.90
52459;DHT22;38372;52.902;6.024;2022-08-21T09:02:18;25.40;99.90
52459;DHT22;38372;52.902;6.024;2022-08-21T09:04:47;25.20;99.90
52459;DHT22;38372;52.902;6.024;2022-08-21T09:07:20;25.00;99.90
52459;DHT22;38372;52.902;6.024;2022-08-21T09:10:12;25.00;99.90
52459;DHT22;38372;52.902;6.024;2022-08-21T09:18:25;25.50;99.90
52459;DHT22;38372;52.902;6.024;2022-08-21T09:26:24;26.50;99.90
52459;DHT22;38372;52.902;6.024;2022-08-21T09:28:56;26.60;99.90
52459;DHT22;38372;52.902;6.024;2022-08-21T09:31:32;26.40;99.90
52459;DHT22;38372;52.902;6.024;2022-08-21T09:37:50;25.80;99.90
52459;DHT22;38372;52.902;6.024;2022-08-21T09:43:14;26.50;99.90
52459;DHT22;38372;52.902;6.024;2022-08-21T09:45:44;26.70;99.90
52459;DHT22;38372;52.902;6.024;2022-08-21T09:48:19;27.10;99.90
52459;DHT22;38372;52.902;6.024;2022-08-21T09:50:46;27.10;99.90
52459;DHT22;38372;52.902;6.024;2022-08-21T09:55:59;27.20;99.90
52459;DHT22;38372;52.902;6.024;2022-08-21T09:58:47;27.00;99.90
52459;DHT22;38372;52.902;6.024;2022-08-21T10:01:23;26.40;99.90
52459;DHT22;38372;52.902;6.024;2022-08-21T10:04:05;26.30;99.90
52459;DHT22;38372;52.902;6.024;2022-08-21T10:06:32;26.60;99.90
52459;DHT22;38372;52.902;6.024;2022-08-21T10:09:11;26.80;99.90
52459;DHT22;38372;52.902;6.024;2022-08-21T10:11:39;27.00;99.90
52459;DHT22;38372;52.902;6.024;2022-08-21T10:14:23;27.30;99.90
52459;DHT22;38372;52.902;6.024;2022-08-21T10:30:27;28.20;96.80
52459;DHT22;38372;52.902;6.024;2022-08-21T10:35:56;27.60;96.60
52459;DHT22;38372;52.902;6.024;2022-08-21T10:38:58;27.80;96.40
52459;DHT22;38372;52.902;6.024;2022-08-21T10:47:04;28.30;93.70
52459;DHT22;38372;52.902;6.024;2022-08-21T10:55:11;28.90;92.90
52459;DHT22;38372;52.902;6.024;2022-08-21T10:57:41;28.90;93.10
52459;DHT22;38372;52.902;6.024;2022-08-21T11:00:23;28.60;92.70
52459;DHT22;38372;52.902;6.024;2022-08-21T11:06:13;28.50;93.30
52459;DHT22;38372;52.902;6.024;2022-08-21T11:08:43;28.50;92.60
52459;DHT22;38372;52.902;6.024;2022-08-21T11:11:23;28.50;92.70
52459;DHT22;38372;52.902;6.024;2022-08-21T11:13:53;28.60;93.70
52459;DHT22;38372;52.902;6.024;2022-08-21T11:16:36;28.80;93.90
52459;DHT22;38372;52.902;6.024;2022-08-21T11:26:45;28.90;92.90
52459;DHT22;38372;52.902;6.024;2022-08-21T11:29:27;28.80;93.60
52459;DHT22;38372;52.902;6.024;2022-08-21T11:32:00;28.80;92.10
52459;DHT22;38372;52.902;6.024;2022-08-21T11:50:55;28.00;91.80
52459;DHT22;38372;52.902;6.024;2022-08-21T11:53:48;27.80;92.90
52459;DHT22;38372;52.902;6.024;2022-08-21T11:56:24;27.80;93.50
52459;DHT22;38372;52.902;6.024;2022-08-21T11:58:58;27.70;92.50
52459;DHT22;38372;52.902;6.024;2022-08-21T12:01:30;27.50;93.20
52459;DHT22;38372;52.902;6.024;2022-08-21T12:04:05;27.50;93.20
52459;DHT22;38372;52.902;6.024;2022-08-21T12:06:38;27.60;93.40
52459;DHT22;38372;52.902;6.024;2022-08-21T12:09:11;27.60;92.40
52459;DHT22;38372;52.902;6.024;2022-08-21T12:12:22;27.30;91.70
52459;DHT22;38372;52.902;6.024;2022-08-21T12:14:50;27.10;91.40
52459;DHT22;38372;52.902;6.024;2022-08-21T12:17:20;26.90;92.10
52459;DHT22;38372;52.902;6.024;2022-08-21T12:20:01;26.80;92.10
52459;DHT22;38372;52.902;6.024;2022-08-21T12:22:40;26.60;91.50
52459;DHT22;38372;52.902;6.024;2022-08-21T12:25:11;26.40;92.30
52459;DHT22;38372;52.902;6.024;2022-08-21T12:27:53;26.20;92.70
52459;DHT22;38372;52.902;6.024;2022-08-21T12:33:17;25.80;93.00
52459;DHT22;38372;52.902;6.024;2022-08-21T12:35:44;25.70;93.70
52459;DHT22;38372;52.902;6.024;2022-08-21T12:39:10;25.60;94.10
52459;DHT22;38372;52.902;6.024;2022-08-21T12:41:19;25.80;94.80
52459;DHT22;38372;52.902;6.024;2022-08-21T12:43:53;26.10;94.40
52459;DHT22;38372;52.902;6.024;2022-08-21T12:46:39;26.20;93.50
52459;DHT22;38372;52.902;6.024;2022-08-21T12:49:14;26.00;93.70
52459;DHT22;38372;52.902;6.024;2022-08-21T12:52:11;25.70;94.60
52459;DHT22;38372;52.902;6.024;2022-08-21T12:54:42;25.70;94.50
52459;DHT22;38372;52.902;6.024;2022-08-21T12:57:24;25.50;94.20
52459;DHT22;38372;52.902;6.024;2022-08-21T13:00:05;25.30;94.60
52459;DHT22;38372;52.902;6.024;2022-08-21T13:02:36;25.20;94.50
52459;DHT22;38372;52.902;6.024;2022-08-21T13:05:08;25.10;94.50
52459;DHT22;38372;52.902;6.024;2022-08-21T13:07:37;25.00;95.30
52459;DHT22;38372;52.902;6.024;2022-08-21T13:12:41;25.00;94.70
52459;DHT22;38372;52.902;6.024;2022-08-21T13:15:08;25.00;95.60
52459;DHT22;38372;52.902;6.024;2022-08-21T13:17:36;24.90;95.60
52459;DHT22;38372;52.902;6.024;2022-08-21T13:20:17;24.90;95.90
52459;DHT22;38372;52.902;6.024;2022-08-21T13:22:44;24.80;96.60
52459;DHT22;38372;52.902;6.024;2022-08-21T13:25:16;24.80;96.80
52459;DHT22;38372;52.902;6.024;2022-08-21T13:28:06;24.80;97.00
52459;DHT22;38372;52.902;6.024;2022-08-21T13:30:37;24.80;97.20
52459;DHT22;38372;52.902;6.024;2022-08-21T13:33:06;24.60;97.30
52459;DHT22;38372;52.902;6.024;2022-08-21T13:36:09;24.60;96.60
52459;DHT22;38372;52.902;6.024;2022-08-21T13:38:33;24.70;96.90
52459;DHT22;38372;52.902;6.024;2022-08-21T13:43:48;25.00;96.50
52459;DHT22;38372;52.902;6.024;2022-08-21T13:46:17;24.90;97.10
52459;DHT22;38372;52.902;6.024;2022-08-21T13:48:47;24.70;97.30
52459;DHT22;38372;52.902;6.024;2022-08-21T13:51:13;24.50;97.20
52459;DHT22;38372;52.902;6.024;2022-08-21T13:56:28;24.80;97.20
52459;DHT22;38372;52.902;6.024;2022-08-21T13:58:56;25.10;97.10
52459;DHT22;38372;52.902;6.024;2022-08-21T14:01:36;25.10;96.20
52459;DHT22;38372;52.902;6.024;2022-08-21T14:04:24;25.00;97.20
52459;DHT22;38372;52.902;6.024;2022-08-21T14:06:51;25.00;97.00
52459;DHT22;38372;52.902;6.024;2022-08-21T14:09:47;24.90;96.40
52459;DHT22;38372;52.902;6.024;2022-08-21T14:14:51;24.60;96.90
52459;DHT22;38372;52.902;6.024;2022-08-21T14:17:32;24.50;96.60
52459;DHT22;38372;52.902;6.024;2022-08-21T14:19:59;24.40;96.50
52459;DHT22;38372;52.902;6.024;2022-08-21T14:25:10;24.40;96.10
52459;DHT22;38372;52.902;6.024;2022-08-21T14:28:40;24.60;96.10
52459;DHT22;38372;52.902;6.024;2022-08-21T14:30:36;24.90;95.40
52459;DHT22;38372;52.902;6.024;2022-08-21T14:33:07;25.00;95.00
52459;DHT22;38372;52.902;6.024;2022-08-21T14:35:34;24.90;95.10
52459;DHT22;38372;52.902;6.024;2022-08-21T14:38:00;24.70;95.40
52459;DHT22;38372;52.902;6.024;2022-08-21T14:40:26;24.60;94.20
52459;DHT22;38372;52.902;6.024;2022-08-21T14:42:52;24.60;94.70
52459;DHT22;38372;52.902;6.024;2022-08-21T14:45:27;24.50;94.50
52459;DHT22;38372;52.902;6.024;2022-08-21T14:47:55;24.40;94.90
52459;DHT22;38372;52.902;6.024;2022-08-21T14:50:21;24.30;95.80
52459;DHT22;38372;52.902;6.024;2022-08-21T14:52:47;24.10;95.90
52459;DHT22;38372;52.902;6.024;2022-08-21T14:55:15;24.00;96.30
52459;DHT22;38372;52.902;6.024;2022-08-21T14:57:48;23.80;96.70
52459;DHT22;38372;52.902;6.024;2022-08-21T15:00:18;23.80;96.40
52459;DHT22;38372;52.902;6.024;2022-08-21T15:02:45;23.80;96.80
52459;DHT22;38372;52.902;6.024;2022-08-21T15:05:12;23.80;96.80
52459;DHT22;38372;52.902;6.024;2022-08-21T15:07:38;23.90;95.80
52459;DHT22;38372;52.902;6.024;2022-08-21T15:10:05;23.80;95.30
52459;DHT22;38372;52.902;6.024;2022-08-21T15:12:32;23.80;96.60
52459;DHT22;38372;52.902;6.024;2022-08-21T15:14:58;23.80;96.50
52459;DHT22;38372;52.902;6.024;2022-08-21T15:17:24;23.70;95.30
52459;DHT22;38372;52.902;6.024;2022-08-21T15:19:50;23.60;95.20
52459;DHT22;38372;52.902;6.024;2022-08-21T15:22:15;23.50;94.80
52459;DHT22;38372;52.902;6.024;2022-08-21T15:24:41;23.50;94.90
52459;DHT22;38372;52.902;6.024;2022-08-21T15:27:08;23.50;95.70
52459;DHT22;38372;52.902;6.024;2022-08-21T15:29:35;23.50;95.80
52459;DHT22;38372;52.902;6.024;2022-08-21T15:32:19;23.40;96.40
52459;DHT22;38372;52.902;6.024;2022-08-21T15:34:46;23.40;96.90
52459;DHT22;38372;52.902;6.024;2022-08-21T15:37:12;23.30;97.00
52459;DHT22;38372;52.902;6.024;2022-08-21T15:39:38;23.30;97.20
52459;DHT22;38372;52.902;6.024;2022-08-21T15:42:04;23.20;97.00
52459;DHT22;38372;52.902;6.024;2022-08-21T15:44:30;23.20;96.80
52459;DHT22;38372;52.902;6.024;2022-08-21T15:46:57;23.20;96.60
52459;DHT22;38372;52.902;6.024;2022-08-21T15:49:24;23.20;96.90
52459;DHT22;38372;52.902;6.024;2022-08-21T15:51:49;23.10;96.40
52459;DHT22;38372;52.902;6.024;2022-08-21T15:54:16;23.10;96.90
52459;DHT22;38372;52.902;6.024;2022-08-21T15:56:44;23.00;96.40
52459;DHT22;38372;52.902;6.024;2022-08-21T15:59:17;23.00;96.10
52459;DHT22;38372;52.902;6.024;2022-08-21T16:01:43;23.00;96.60
52459;DHT22;38372;52.902;6.024;2022-08-21T16:04:22;23.00;97.10
52459;DHT22;38372;52.902;6.024;2022-08-21T16:06:49;22.90;96.70
52459;DHT22;38372;52.902;6.024;2022-08-21T16:09:15;22.90;95.90
52459;DHT22;38372;52.902;6.024;2022-08-21T16:11:42;22.90;95.80
52459;DHT22;38372;52.902;6.024;2022-08-21T16:14:11;22.90;96.40
52459;DHT22;38372;52.902;6.024;2022-08-21T16:16:37;22.90;97.00
52459;DHT22;38372;52.902;6.024;2022-08-21T16:19:03;22.80;97.50
52459;DHT22;38372;52.902;6.024;2022-08-21T16:21:32;22.80;97.60
52459;DHT22;38372;52.902;6.024;2022-08-21T16:23:58;22.70;97.40
52459;DHT22;38372;52.902;6.024;2022-08-21T16:26:24;22.70;97.20
52459;DHT22;38372;52.902;6.024;2022-08-21T16:28:54;22.60;96.20
52459;DHT22;38372;52.902;6.024;2022-08-21T16:31:22;22.50;96.50
52459;DHT22;38372;52.902;6.024;2022-08-21T16:33:51;22.50;96.90
52459;DHT22;38372;52.902;6.024;2022-08-21T16:36:17;22.50;97.40
52459;DHT22;38372;52.902;6.024;2022-08-21T16:38:43;22.50;98.00
52459;DHT22;38372;52.902;6.024;2022-08-21T16:41:14;22.40;98.60
52459;DHT22;38372;52.902;6.024;2022-08-21T16:43:42;22.40;99.20
52459;DHT22;38372;52.902;6.024;2022-08-21T16:46:11;22.30;98.90
52459;DHT22;38372;52.902;6.024;2022-08-21T16:48:38;22.20;98.50
52459;DHT22;38372;52.902;6.024;2022-08-21T16:51:04;22.20;98.90
52459;DHT22;38372;52.902;6.024;2022-08-21T16:53:30;22.10;99.50
52459;DHT22;38372;52.902;6.024;2022-08-21T16:55:56;22.00;99.60
52459;DHT22;38372;52.902;6.024;2022-08-21T16:58:26;22.00;99.80
52459;DHT22;38372;52.902;6.024;2022-08-21T17:00:54;21.90;99.90
52459;DHT22;38372;52.902;6.024;2022-08-21T17:03:33;21.80;99.90
52459;DHT22;38372;52.902;6.024;2022-08-21T17:06:00;21.70;99.90
52459;DHT22;38372;52.902;6.024;2022-08-21T17:08:27;21.60;99.90
52459;DHT22;38372;52.902;6.024;2022-08-21T17:10:53;21.60;99.90
52459;DHT22;38372;52.902;6.024;2022-08-21T17:13:19;21.50;99.90
52459;DHT22;38372;52.902;6.024;2022-08-21T17:15:45;21.30;99.90
52459;DHT22;38372;52.902;6.024;2022-08-21T17:18:17;21.30;99.90
52459;DHT22;38372;52.902;6.024;2022-08-21T17:20:43;21.20;99.90